createdAt,value
2023-01-05T00:02:31.891Z,11.90
2023-01-05T00:05:17.624Z,12.00
2023-01-05T00:08:03.236Z,12.10
2023-01-05T00:11:07.092Z,12.90
2023-01-05T00:14:11.114Z,11.90
2023-01-05T00:17:15.042Z,11.80
2023-01-05T00:20:19.550Z,11.70
2023-01-05T00:23:06.461Z,11.70
2023-01-05T00:25:51.891Z,11.60
2023-01-05T00:28:37.649Z,11.60
2023-01-05T00:31:23.113Z,11.70
2023-01-05T00:34:08.797Z,11.80
2023-01-05T00:36:54.477Z,11.80
2023-01-05T00:39:40.081Z,11.90
2023-01-05T00:42:26.321Z,11.90
2023-01-05T00:45:15.929Z,11.90
2023-01-05T00:48:02.031Z,11.90
2023-01-05T00:50:50.107Z,11.90
2023-01-05T00:53:35.849Z,11.80
2023-01-05T00:56:21.312Z,11.90
2023-01-05T00:59:07.249Z,12.10
2023-01-05T01:01:53.586Z,12.20
2023-01-05T01:04:39.749Z,12.20
2023-01-05T01:07:25.095Z,12.30
2023-01-05T01:10:12.070Z,12.30
2023-01-05T01:12:57.730Z,12.30
2023-01-05T01:15:45.467Z,12.00
2023-01-05T01:18:31.710Z,12.00
2023-01-05T01:21:17.672Z,12.10
2023-01-05T01:24:03.858Z,12.20
2023-01-05T01:26:50.548Z,12.00
2023-01-05T01:29:36.045Z,12.10
2023-01-05T01:32:21.884Z,12.10
2023-01-05T01:35:08.629Z,12.20
2023-01-05T01:37:54.946Z,12.30
2023-01-05T01:40:44.879Z,12.30
2023-01-05T01:43:53.138Z,12.10
2023-01-05T01:46:40.457Z,12.10
2023-01-05T01:49:25.985Z,12.10
2023-01-05T01:52:11.839Z,12.00
2023-01-05T01:54:59.041Z,12.00
2023-01-05T01:57:45.870Z,12.00
2023-01-05T02:00:31.453Z,11.90
2023-01-05T02:03:17.300Z,11.80
2023-01-05T02:06:03.604Z,11.80
2023-01-05T02:08:50.382Z,11.40
2023-01-05T02:12:03.980Z,11.20
2023-01-05T02:15:23.650Z,11.30
2023-01-05T02:18:21.839Z,11.50
2023-01-05T02:21:39.498Z,11.30
2023-01-05T02:24:53.011Z,11.40
2023-01-05T02:27:49.838Z,11.30
2023-01-05T02:30:51.416Z,11.30
2023-01-05T02:34:00.281Z,11.00
2023-01-05T02:37:07.676Z,11.00
2023-01-05T02:40:15.477Z,11.00
2023-01-05T02:43:02.687Z,11.00
2023-01-05T02:45:49.811Z,10.90
2023-01-05T02:48:35.313Z,10.90
2023-01-05T02:51:32.425Z,11.00
2023-01-05T02:54:26.236Z,11.00
2023-01-05T02:57:19.601Z,11.00
2023-01-05T03:00:05.757Z,11.00
2023-01-05T03:02:56.563Z,11.00
2023-01-05T03:05:52.950Z,10.90
2023-01-05T03:08:44.781Z,10.90
2023-01-05T03:12:12.103Z,10.90
2023-01-05T03:15:18.618Z,10.80
2023-01-05T03:18:17.138Z,10.60
2023-01-05T03:21:08.565Z,10.60
2023-01-05T03:24:15.799Z,10.70
2023-01-05T03:27:23.011Z,10.70
2023-01-05T03:30:28.619Z,10.70
2023-01-05T03:34:05.185Z,10.60
2023-01-05T03:37:03.726Z,10.60
2023-01-05T03:39:49.842Z,10.50
2023-01-05T03:42:37.299Z,10.50
2023-01-05T03:45:25.407Z,10.50
2023-01-05T03:48:12.035Z,10.60
2023-01-05T03:50:57.700Z,10.60
2023-01-05T03:53:44.888Z,10.50
2023-01-05T03:56:31.812Z,10.50
2023-01-05T03:59:17.464Z,10.70
2023-01-05T04:02:03.438Z,10.60
2023-01-05T04:04:50.312Z,10.80
2023-01-05T04:07:36.877Z,10.90
2023-01-05T04:10:22.839Z,10.90
2023-01-05T04:13:08.766Z,10.90
2023-01-05T04:15:55.413Z,11.00
2023-01-05T04:18:41.042Z,11.00
2023-01-05T04:21:28.443Z,11.00
2023-01-05T04:24:15.693Z,11.00
2023-01-05T04:27:03.735Z,10.90
2023-01-05T04:29:49.619Z,10.90
2023-01-05T04:32:35.213Z,11.10
2023-01-05T04:35:21.311Z,11.20
2023-01-05T04:38:07.843Z,11.20
2023-01-05T04:40:53.481Z,11.20
2023-01-05T04:43:42.780Z,11.20
2023-01-05T04:46:28.523Z,11.30
2023-01-05T04:49:16.399Z,11.40
2023-01-05T04:52:02.475Z,11.10
2023-01-05T04:54:51.369Z,11.20
2023-01-05T04:57:36.975Z,11.20
2023-01-05T05:00:22.845Z,11.40
2023-01-05T05:03:09.960Z,11.40
2023-01-05T05:05:56.629Z,11.60
2023-01-05T05:08:44.210Z,11.60
2023-01-05T05:11:30.668Z,11.60
2023-01-05T05:14:16.340Z,11.60
2023-01-05T05:17:02.741Z,11.80
2023-01-05T05:19:49.084Z,11.50
2023-01-05T05:22:36.869Z,11.60
2023-01-05T05:25:22.607Z,11.40
2023-01-05T05:28:09.292Z,11.60
2023-01-05T05:30:56.448Z,11.80
2023-01-05T05:33:43.255Z,11.80
2023-01-05T05:36:29.408Z,11.60
2023-01-05T05:39:16.095Z,11.60
2023-01-05T05:42:01.524Z,11.60
2023-01-05T05:44:47.071Z,11.70
2023-01-05T05:47:32.836Z,11.20
2023-01-05T05:50:18.692Z,11.20
2023-01-05T05:53:06.407Z,11.10
2023-01-05T05:55:52.047Z,11.20
2023-01-05T05:58:37.618Z,11.60
2023-01-05T06:01:23.207Z,11.30
2023-01-05T06:04:08.622Z,11.50
2023-01-05T06:06:54.108Z,11.30
2023-01-05T06:09:39.575Z,11.50
2023-01-05T06:12:25.271Z,11.80
2023-01-05T06:15:11.549Z,11.70
2023-01-05T06:17:57.271Z,11.60
2023-01-05T06:20:43.576Z,11.70
2023-01-05T06:23:28.845Z,11.90
2023-01-05T06:26:14.145Z,11.70
2023-01-05T06:28:59.858Z,11.70
2023-01-05T06:31:45.407Z,11.80
2023-01-05T06:34:31.253Z,11.80
2023-01-05T06:37:16.893Z,11.90
2023-01-05T06:40:02.725Z,12.00
2023-01-05T06:42:48.387Z,12.00
2023-01-05T06:45:33.812Z,12.00
2023-01-05T06:48:19.410Z,11.90
2023-01-05T06:51:04.860Z,11.80
2023-01-05T06:53:50.707Z,11.90
2023-01-05T06:56:36.364Z,12.00
2023-01-05T06:59:21.647Z,11.90
2023-01-05T07:02:14.560Z,11.80
2023-01-05T07:05:01.238Z,12.00
2023-01-05T07:07:47.425Z,12.10
2023-01-05T07:10:33.023Z,12.00
2023-01-05T07:13:18.778Z,11.90
2023-01-05T07:16:04.641Z,11.80
2023-01-05T07:18:50.267Z,11.80
2023-01-05T07:21:36.438Z,11.60
2023-01-05T07:24:22.296Z,11.50
2023-01-05T07:27:09.931Z,11.50
2023-01-05T07:29:55.970Z,11.40
2023-01-05T07:32:42.463Z,11.50
2023-01-05T07:35:29.439Z,11.40
2023-01-05T07:38:15.523Z,11.50
2023-01-05T07:41:02.185Z,11.60
2023-01-05T07:43:51.034Z,11.50
2023-01-05T07:46:36.580Z,11.60
2023-01-05T07:49:21.870Z,11.60
2023-01-05T07:52:08.460Z,11.60
2023-01-05T07:54:54.295Z,11.70
2023-01-05T07:57:40.075Z,11.80
2023-01-05T08:00:25.817Z,11.60
2023-01-05T08:03:11.821Z,11.50
2023-01-05T08:05:57.928Z,11.70
2023-01-05T08:08:44.216Z,11.70
2023-01-05T08:11:29.870Z,11.70
2023-01-05T08:14:17.455Z,11.60
2023-01-05T08:17:03.064Z,11.50
2023-01-05T08:19:50.463Z,11.40
2023-01-05T08:22:36.997Z,11.50
2023-01-05T08:25:22.806Z,11.30
2023-01-05T08:28:08.180Z,11.30
2023-01-05T08:31:00.125Z,11.60
2023-01-05T08:33:46.318Z,11.50
2023-01-05T08:36:34.641Z,11.50
2023-01-05T08:39:20.503Z,11.40
2023-01-05T08:42:07.036Z,11.30
2023-01-05T08:44:52.624Z,11.50
2023-01-05T08:47:38.032Z,11.50
2023-01-05T08:50:24.569Z,11.70
2023-01-05T08:53:10.276Z,11.70
2023-01-05T08:56:01.006Z,11.70
2023-01-05T08:58:47.267Z,11.70
2023-01-05T09:01:34.841Z,12.00
2023-01-05T09:04:24.012Z,12.00
2023-01-05T09:07:10.818Z,12.00
2023-01-05T09:09:56.862Z,12.00
2023-01-05T09:12:43.583Z,12.10
2023-01-05T09:15:29.358Z,12.00
2023-01-05T09:18:16.082Z,12.10
2023-01-05T09:21:03.903Z,12.30
2023-01-05T09:23:49.656Z,12.40
2023-01-05T09:26:35.581Z,12.30
2023-01-05T09:29:21.361Z,12.10
2023-01-05T09:32:07.831Z,12.10
2023-01-05T09:34:53.509Z,12.00
2023-01-05T09:37:39.250Z,11.80
2023-01-05T09:40:25.398Z,12.10
2023-01-05T09:43:27.664Z,12.10
2023-01-05T09:46:28.624Z,11.90
2023-01-05T09:49:18.398Z,11.90
2023-01-05T09:52:09.374Z,11.90
2023-01-05T09:54:56.533Z,11.80
2023-01-05T09:57:42.579Z,11.70
2023-01-05T10:00:29.713Z,11.90
2023-01-05T10:03:53.411Z,12.10
2023-01-05T10:06:35.642Z,12.20
2023-01-05T10:09:25.104Z,12.30
2023-01-05T10:12:46.108Z,11.90
2023-01-05T10:15:54.185Z,11.90
2023-01-05T10:18:40.135Z,12.00
2023-01-05T10:21:35.252Z,12.10
2023-01-05T10:24:43.638Z,12.10
2023-01-05T10:27:57.537Z,11.60
2023-01-05T10:31:00.753Z,12.40
2023-01-05T10:34:16.325Z,11.90
2023-01-05T10:37:21.274Z,11.90
2023-01-05T10:40:19.911Z,11.90
2023-01-05T10:43:17.892Z,11.90
2023-01-05T10:49:24.035Z,12.20
2023-01-05T10:52:15.743Z,11.90
2023-01-05T10:55:13.765Z,12.30
2023-01-05T10:58:01.188Z,12.40
2023-01-05T11:00:47.738Z,12.30
2023-01-05T11:04:23.031Z,12.50
2023-01-05T11:06:47.636Z,12.50
2023-01-05T11:09:39.291Z,12.80
2023-01-05T11:12:26.344Z,12.50
2023-01-05T11:15:15.756Z,11.90
2023-01-05T11:18:03.220Z,10.70
2023-01-05T11:21:11.642Z,12.20
2023-01-05T11:24:00.402Z,12.30
2023-01-05T11:27:01.842Z,12.50
2023-01-05T11:30:16.850Z,12.60
2023-01-05T11:33:03.212Z,12.40
2023-01-05T11:35:50.493Z,11.90
2023-01-05T11:38:37.012Z,12.20
2023-01-05T11:41:24.846Z,12.20
2023-01-05T11:44:21.185Z,12.00
2023-01-05T11:47:08.113Z,12.30
2023-01-05T11:50:13.807Z,12.30
2023-01-05T11:53:03.289Z,11.50
2023-01-05T11:56:01.078Z,11.60
2023-01-05T11:58:49.315Z,12.20
2023-01-05T12:01:54.812Z,12.50
2023-01-05T12:05:22.246Z,12.70
2023-01-05T12:08:17.680Z,12.80
2023-01-05T12:11:07.852Z,12.90
2023-01-05T12:14:15.584Z,12.90
2023-01-05T12:17:13.173Z,12.00
2023-01-05T12:19:59.461Z,12.60
2023-01-05T12:23:14.152Z,12.80
2023-01-05T12:26:01.458Z,12.80
2023-01-05T12:29:51.399Z,12.30
2023-01-05T12:35:55.037Z,12.80
2023-01-05T12:39:19.839Z,13.00
2023-01-05T12:42:24.650Z,12.50
2023-01-05T12:45:36.803Z,12.70
2023-01-05T12:52:04.525Z,11.60
2023-01-05T12:58:35.551Z,10.60
2023-01-05T13:01:35.659Z,11.50
2023-01-05T13:04:46.715Z,10.40
2023-01-05T13:08:00.225Z,10.90
2023-01-05T13:10:53.462Z,11.00
2023-01-05T13:13:50.028Z,11.40
2023-01-05T13:16:42.467Z,11.60
2023-01-05T13:19:36.904Z,12.00
2023-01-05T13:22:27.425Z,12.50
2023-01-05T13:25:25.688Z,12.50
2023-01-05T13:28:26.008Z,12.60
2023-01-05T13:31:42.996Z,12.70
2023-01-05T13:34:41.724Z,12.70
2023-01-05T13:37:58.366Z,12.50
2023-01-05T13:40:47.119Z,12.50
2023-01-05T13:44:06.463Z,12.60
2023-01-05T13:47:13.863Z,12.70
2023-01-05T14:00:13.449Z,12.50
2023-01-05T14:03:30.512Z,12.10
2023-01-05T14:06:23.800Z,11.90
2023-01-05T14:17:09.913Z,11.40
2023-01-05T14:20:10.355Z,11.50
2023-01-05T14:22:57.949Z,12.40
2023-01-05T14:25:48.573Z,11.60
2023-01-05T14:28:34.189Z,12.10
2023-01-05T14:31:35.434Z,12.20
2023-01-05T14:34:27.846Z,12.30
2023-01-05T14:37:41.705Z,12.10
2023-01-05T14:40:53.655Z,11.90
2023-01-05T14:43:41.075Z,11.40
2023-01-05T14:46:54.183Z,11.40
2023-01-05T14:53:34.754Z,11.00
2023-01-05T14:57:10.829Z,11.10
2023-01-05T15:07:36.380Z,11.10
2023-01-05T15:14:38.398Z,11.60
2023-01-05T15:17:48.878Z,12.20
2023-01-05T15:21:00.251Z,12.10
2023-01-05T15:24:09.935Z,11.40
2023-01-05T15:28:27.001Z,10.90
2023-01-05T15:31:48.598Z,12.50
2023-01-05T15:34:44.710Z,11.80
2023-01-05T15:37:34.935Z,12.10
2023-01-05T15:40:23.779Z,12.40
2023-01-05T15:43:16.691Z,12.30
2023-01-05T15:46:04.597Z,11.90
2023-01-05T15:48:54.778Z,11.70
2023-01-05T15:51:43.149Z,11.50
2023-01-05T15:54:31.247Z,11.50
2023-01-05T15:57:21.610Z,11.00
2023-01-05T16:00:18.754Z,10.90
2023-01-05T16:03:25.173Z,10.80
2023-01-05T16:06:17.176Z,10.70
2023-01-05T16:09:09.965Z,11.10
2023-01-05T16:12:24.385Z,11.20
2023-01-05T16:15:15.606Z,11.30
2023-01-05T16:21:35.503Z,11.40
2023-01-05T16:24:27.224Z,11.20
2023-01-05T16:27:15.724Z,11.10
2023-01-05T16:30:14.776Z,10.90
2023-01-05T16:33:12.760Z,10.90
2023-01-05T16:36:18.681Z,11.10
2023-01-05T16:39:21.852Z,11.50
2023-01-05T16:42:40.264Z,11.60
2023-01-05T16:45:33.853Z,11.40
2023-01-05T16:48:41.155Z,10.80
2023-01-05T16:51:32.771Z,10.40
2023-01-05T16:54:36.842Z,10.10
2023-01-05T16:57:38.410Z,10.50
2023-01-05T17:00:30.894Z,10.50
2023-01-05T17:03:31.939Z,10.10
2023-01-05T17:06:31.056Z,10.60
2023-01-05T17:09:29.197Z,10.50
2023-01-05T17:12:15.703Z,11.00
2023-01-05T17:15:05.569Z,10.70
2023-01-05T17:17:55.263Z,10.40
2023-01-05T17:20:42.512Z,10.00
2023-01-05T17:23:47.328Z,9.90
2023-01-05T17:26:38.033Z,10.40
2023-01-05T17:29:32.370Z,10.10
2023-01-05T17:32:20.604Z,10.20
2023-01-05T17:37:55.041Z,10.70
2023-01-05T17:40:41.618Z,10.80
2023-01-05T17:43:27.444Z,10.70
2023-01-05T17:46:32.881Z,10.60
2023-01-05T17:49:20.808Z,10.70
2023-01-05T17:52:06.863Z,10.90
2023-01-05T17:54:52.259Z,11.00
2023-01-05T17:57:39.007Z,10.90
2023-01-05T18:00:28.203Z,10.60
2023-01-05T18:03:22.222Z,10.50
2023-01-05T18:06:10.186Z,10.40
2023-01-05T18:08:56.143Z,10.40
2023-01-05T18:11:41.556Z,10.30
2023-01-05T18:14:27.738Z,10.40
2023-01-05T18:17:15.748Z,10.20
2023-01-05T18:20:01.521Z,10.10
2023-01-05T18:22:47.204Z,10.40
2023-01-05T18:25:32.975Z,10.50
2023-01-05T18:28:18.540Z,10.40
2023-01-05T18:31:15.801Z,10.40
2023-01-05T18:34:01.200Z,10.10
2023-01-05T18:36:52.438Z,10.20
2023-01-05T18:39:44.663Z,10.60
2023-01-05T18:42:30.172Z,10.70
2023-01-05T18:45:20.257Z,10.80
2023-01-05T18:48:11.656Z,10.80
2023-01-05T18:50:57.282Z,10.90
2023-01-05T18:53:43.769Z,10.80
2023-01-05T18:56:29.093Z,10.70
2023-01-05T18:59:15.162Z,10.80
2023-01-05T19:02:01.005Z,10.80
2023-01-05T19:04:47.274Z,10.80
2023-01-05T19:08:11.880Z,10.90
2023-01-05T19:10:58.039Z,10.10
2023-01-05T19:13:49.054Z,11.00
2023-01-05T19:16:36.455Z,11.00
2023-01-05T19:19:22.333Z,11.00
2023-01-05T19:22:07.994Z,11.00
2023-01-05T19:24:53.432Z,11.10
2023-01-05T19:27:39.048Z,11.10
2023-01-05T19:30:25.842Z,11.10
2023-01-05T19:33:11.755Z,10.80
2023-01-05T19:36:08.859Z,10.90
2023-01-05T19:38:54.372Z,10.90
2023-01-05T19:41:41.906Z,11.20
2023-01-05T19:44:27.609Z,11.00
2023-01-05T19:47:14.836Z,10.90
2023-01-05T19:50:00.916Z,10.80
2023-01-05T19:52:46.715Z,10.60
2023-01-05T19:55:38.927Z,10.20
2023-01-05T19:58:24.680Z,10.20
2023-01-05T20:01:16.478Z,9.50
2023-01-05T20:04:02.224Z,9.70
2023-01-05T20:06:47.895Z,9.70
2023-01-05T20:09:33.519Z,9.40
2023-01-05T20:12:18.928Z,9.50
2023-01-05T20:15:05.061Z,9.10
2023-01-05T20:17:50.627Z,9.10
2023-01-05T20:20:36.123Z,9.20
2023-01-05T20:23:21.750Z,8.90
2023-01-05T20:26:08.524Z,8.60
2023-01-05T20:28:57.665Z,8.10
2023-01-05T20:31:52.875Z,7.40
2023-01-05T20:34:40.019Z,7.30
2023-01-05T20:37:27.946Z,7.10
2023-01-05T20:40:13.524Z,7.30
2023-01-05T20:42:59.455Z,7.20
2023-01-05T20:45:45.305Z,7.00
2023-01-05T20:48:30.658Z,7.30
2023-01-05T20:51:17.062Z,7.60
2023-01-05T20:54:03.751Z,7.50
2023-01-05T20:56:49.582Z,7.90
2023-01-05T20:59:38.773Z,7.50
2023-01-05T21:02:25.013Z,7.50
2023-01-05T21:05:11.822Z,7.20
2023-01-05T21:07:58.625Z,7.40
2023-01-05T21:10:44.559Z,7.80
2023-01-05T21:13:32.353Z,8.00
2023-01-05T21:16:21.458Z,8.10
2023-01-05T21:19:07.740Z,8.20
2023-01-05T21:21:55.561Z,8.10
2023-01-05T21:24:42.827Z,8.20
2023-01-05T21:27:28.659Z,8.00
2023-01-05T21:30:14.661Z,8.00
2023-01-05T21:33:00.409Z,8.40
2023-01-05T21:35:53.676Z,8.10
2023-01-05T21:39:00.987Z,6.80
2023-01-05T21:42:11.969Z,8.40
2023-01-05T21:44:57.510Z,8.60
2023-01-05T21:47:43.670Z,8.50
2023-01-05T21:50:47.602Z,7.20
2023-01-05T21:53:52.235Z,7.00
2023-01-05T21:56:40.253Z,7.30
2023-01-05T21:59:26.325Z,6.80
2023-01-05T22:02:13.050Z,7.20
2023-01-05T22:04:58.655Z,6.80
2023-01-05T22:07:44.241Z,7.30
2023-01-05T22:10:29.859Z,7.00
2023-01-05T22:13:15.716Z,6.90
2023-01-05T22:16:01.280Z,7.10
2023-01-05T22:18:46.908Z,7.70
2023-01-05T22:21:32.741Z,7.50
2023-01-05T22:24:18.197Z,7.00
2023-01-05T22:27:04.951Z,7.20
2023-01-05T22:29:50.504Z,7.20
2023-01-05T22:32:36.591Z,7.00
2023-01-05T22:35:22.274Z,7.10
2023-01-05T22:38:07.660Z,7.10
2023-01-05T22:40:57.793Z,7.40
2023-01-05T22:43:43.931Z,7.20
2023-01-05T22:46:30.687Z,7.00
2023-01-05T22:49:16.851Z,6.80
2023-01-05T22:52:03.256Z,7.00
2023-01-05T22:54:48.783Z,7.20
2023-01-05T22:57:34.756Z,7.70
2023-01-05T23:00:20.507Z,7.20
2023-01-05T23:03:06.157Z,7.10
2023-01-05T23:05:53.841Z,7.40
2023-01-05T23:08:40.852Z,7.30
2023-01-05T23:11:30.418Z,6.60
2023-01-05T23:14:18.548Z,6.80
2023-01-05T23:17:04.653Z,7.30
2023-01-05T23:20:08.910Z,7.20
2023-01-05T23:22:54.646Z,7.20
2023-01-05T23:25:40.395Z,6.80
2023-01-05T23:28:27.977Z,6.50
2023-01-05T23:31:16.216Z,6.60
2023-01-05T23:34:01.721Z,6.70
2023-01-05T23:36:47.400Z,6.90
2023-01-05T23:39:33.146Z,6.90
2023-01-05T23:42:37.317Z,6.80
2023-01-05T23:45:22.978Z,6.70
2023-01-05T23:48:09.206Z,6.50
2023-01-05T23:50:56.001Z,6.60
2023-01-05T23:53:43.749Z,6.60
2023-01-05T23:56:31.156Z,6.90
2023-01-05T23:59:16.903Z,7.00
